sensor_id;sensor_type;location;lat;lon;timestamp;temperature;humidity
34829;DHT22;21042;47.620;12.188;2023-03-01T00:01:04;0.50;99.90
34829;DHT22;21042;47.620;12.188;2023-03-01T00:03:32;0.50;99.90
34829;DHT22;21042;47.620;12.188;2023-03-01T00:05:59;0.60;99.90
34829;DHT22;21042;47.620;12.188;2023-03-01T00:08:27;0.50;99.90
34829;DHT22;21042;47.620;12.188;2023-03-01T00:13:31;0.50;99.90
34829;DHT22;21042;47.620;12.188;2023-03-01T00:15:58;0.50;99.90
34829;DHT22;21042;47.620;12.188;2023-03-01T00:18:25;0.50;99.90
34829;DHT22;21042;47.620;12.188;2023-03-01T00:20:52;0.50;99.90
34829;DHT22;21042;47.620;12.188;2023-03-01T00:23:20;0.50;99.90
34829;DHT22;21042;47.620;12.188;2023-03-01T00:25:47;0.50;99.90
34829;DHT22;21042;47.620;12.188;2023-03-01T00:28:13;0.50;99.90
34829;DHT22;21042;47.620;12.188;2023-03-01T00:30:40;0.50;99.90
34829;DHT22;21042;47.620;12.188;2023-03-01T00:33:07;0.60;99.90
34829;DHT22;21042;47.620;12.188;2023-03-01T00:35:34;0.60;99.90
34829;DHT22;21042;47.620;12.188;2023-03-01T00:38:01;0.60;99.90
34829;DHT22;21042;47.620;12.188;2023-03-01T00:40:29;0.60;99.90
34829;DHT22;21042;47.620;12.188;2023-03-01T00:42:55;0.60;99.90
34829;DHT22;21042;47.620;12.188;2023-03-01T00:45:22;0.60;99.90
34829;DHT22;21042;47.620;12.188;2023-03-01T00:47:50;0.50;99.90
34829;DHT22;21042;47.620;12.188;2023-03-01T00:50:18;0.60;99.90
34829;DHT22;21042;47.620;12.188;2023-03-01T00:52:45;0.60;99.90
34829;DHT22;21042;47.620;12.188;2023-03-01T00:55:12;0.60;99.90
34829;DHT22;21042;47.620;12.188;2023-03-01T00:57:39;0.60;99.90
34829;DHT22;21042;47.620;12.188;2023-03-01T01:00:07;0.60;99.90
34829;DHT22;21042;47.620;12.188;2023-03-01T01:02:34;0.60;99.90
34829;DHT22;21042;47.620;12.188;2023-03-01T01:05:01;0.60;99.90
34829;DHT22;21042;47.620;12.188;2023-03-01T01:07:28;0.60;99.90
34829;DHT22;21042;47.620;12.188;2023-03-01T01:09:55;0.60;99.90
34829;DHT22;21042;47.620;12.188;2023-03-01T01:12:22;0.60;99.90
34829;DHT22;21042;47.620;12.188;2023-03-01T01:14:48;0.60;99.90
34829;DHT22;21042;47.620;12.188;2023-03-01T01:17:15;0.60;99.90
34829;DHT22;21042;47.620;12.188;2023-03-01T01:19:42;0.50;99.90
34829;DHT22;21042;47.620;12.188;2023-03-01T01:22:09;0.50;99.90
34829;DHT22;21042;47.620;12.188;2023-03-01T01:24:36;0.50;99.90
34829;DHT22;21042;47.620;12.188;2023-03-01T01:27:02;0.50;99.90
34829;DHT22;21042;47.620;12.188;2023-03-01T01:29:29;0.50;99.90
34829;DHT22;21042;47.620;12.188;2023-03-01T01:31:56;0.50;99.90
34829;DHT22;21042;47.620;12.188;2023-03-01T01:34:23;0.50;99.90
34829;DHT22;21042;47.620;12.188;2023-03-01T01:36:52;0.40;99.90
34829;DHT22;21042;47.620;12.188;2023-03-01T01:39:22;0.50;99.90
34829;DHT22;21042;47.620;12.188;2023-03-01T01:41:49;0.50;99.90
34829;DHT22;21042;47.620;12.188;2023-03-01T01:44:25;0.50;99.90
34829;DHT22;21042;47.620;12.188;2023-03-01T01:47:06;0.50;99.90
34829;DHT22;21042;47.620;12.188;2023-03-01T01:50:02;0.50;99.90
34829;DHT22;21042;47.620;12.188;2023-03-01T01:52:33;0.50;99.90
34829;DHT22;21042;47.620;12.188;2023-03-01T01:55:08;0.50;99.90
34829;DHT22;21042;47.620;12.188;2023-03-01T01:57:43;0.50;99.90
34829;DHT22;21042;47.620;12.188;2023-03-01T02:00:16;0.50;99.90
34829;DHT22;21042;47.620;12.188;2023-03-01T02:02:46;0.50;99.90
34829;DHT22;21042;47.620;12.188;2023-03-01T02:08:26;0.40;99.90
34829;DHT22;21042;47.620;12.188;2023-03-01T02:10:55;0.40;99.90
34829;DHT22;21042;47.620;12.188;2023-03-01T02:13:23;0.40;99.90
34829;DHT22;21042;47.620;12.188;2023-03-01T02:15:50;0.40;99.90
34829;DHT22;21042;47.620;12.188;2023-03-01T02:18:18;0.40;99.90
34829;DHT22;21042;47.620;12.188;2023-03-01T02:23:25;0.40;99.90
34829;DHT22;21042;47.620;12.188;2023-03-01T02:28:32;0.50;99.90
34829;DHT22;21042;47.620;12.188;2023-03-01T02:30:59;0.50;99.90
34829;DHT22;21042;47.620;12.188;2023-03-01T02:33:45;0.50;99.90
34829;DHT22;21042;47.620;12.188;2023-03-01T02:36:18;0.50;99.90
34829;DHT22;21042;47.620;12.188;2023-03-01T02:38:47;0.50;99.90
34829;DHT22;21042;47.620;12.188;2023-03-01T02:41:16;0.50;99.90
34829;DHT22;21042;47.620;12.188;2023-03-01T02:43:44;0.50;99.90
34829;DHT22;21042;47.620;12.188;2023-03-01T02:46:20;0.50;99.90
34829;DHT22;21042;47.620;12.188;2023-03-01T02:48:56;0.50;99.90
34829;DHT22;21042;47.620;12.188;2023-03-01T02:51:38;0.40;99.90
34829;DHT22;21042;47.620;12.188;2023-03-01T02:54:34;0.50;99.90
34829;DHT22;21042;47.620;12.188;2023-03-01T02:56:59;0.40;99.90
34829;DHT22;21042;47.620;12.188;2023-03-01T02:59:31;0.40;99.90
34829;DHT22;21042;47.620;12.188;2023-03-01T03:02:00;0.40;99.90
34829;DHT22;21042;47.620;12.188;2023-03-01T03:04:27;0.50;99.90
34829;DHT22;21042;47.620;12.188;2023-03-01T03:06:54;0.50;99.90
34829;DHT22;21042;47.620;12.188;2023-03-01T03:09:21;0.40;99.90
34829;DHT22;21042;47.620;12.188;2023-03-01T03:11:48;0.50;99.90
34829;DHT22;21042;47.620;12.188;2023-03-01T03:14:16;0.50;99.90
34829;DHT22;21042;47.620;12.188;2023-03-01T03:16:48;0.40;99.90
34829;DHT22;21042;47.620;12.188;2023-03-01T03:19:16;0.40;99.90
34829;DHT22;21042;47.620;12.188;2023-03-01T03:21:43;0.40;99.90
34829;DHT22;21042;47.620;12.188;2023-03-01T03:24:10;0.40;99.90
34829;DHT22;21042;47.620;12.188;2023-03-01T03:26:37;0.40;99.90
34829;DHT22;21042;47.620;12.188;2023-03-01T03:29:04;0.50;99.90
34829;DHT22;21042;47.620;12.188;2023-03-01T03:31:31;0.50;99.90
34829;DHT22;21042;47.620;12.188;2023-03-01T03:33:58;0.40;99.90
34829;DHT22;21042;47.620;12.188;2023-03-01T03:36:25;0.40;99.90
34829;DHT22;21042;47.620;12.188;2023-03-01T03:38:52;0.40;99.90
34829;DHT22;21042;47.620;12.188;2023-03-01T03:41:19;0.50;99.90
34829;DHT22;21042;47.620;12.188;2023-03-01T03:43:46;0.50;99.90
34829;DHT22;21042;47.620;12.188;2023-03-01T03:46:12;0.50;99.90
34829;DHT22;21042;47.620;12.188;2023-03-01T03:48:43;0.50;99.90
34829;DHT22;21042;47.620;12.188;2023-03-01T03:51:14;0.40;99.90
34829;DHT22;21042;47.620;12.188;2023-03-01T03:53:42;0.40;99.90
34829;DHT22;21042;47.620;12.188;2023-03-01T03:56:10;0.50;99.90
34829;DHT22;21042;47.620;12.188;2023-03-01T03:58:37;0.40;99.90
34829;DHT22;21042;47.620;12.188;2023-03-01T04:01:04;0.40;99.90
34829;DHT22;21042;47.620;12.188;2023-03-01T04:03:31;0.40;99.90
34829;DHT22;21042;47.620;12.188;2023-03-01T04:05:59;0.40;99.90
34829;DHT22;21042;47.620;12.188;2023-03-01T04:08:27;0.50;99.90
34829;DHT22;21042;47.620;12.188;2023-03-01T04:10:59;0.50;99.90
34829;DHT22;21042;47.620;12.188;2023-03-01T04:13:47;0.50;99.90
34829;DHT22;21042;47.620;12.188;2023-03-01T04:16:14;0.50;99.90
34829;DHT22;21042;47.620;12.188;2023-03-01T04:18:40;0.50;99.90
34829;DHT22;21042;47.620;12.188;2023-03-01T04:21:07;0.40;99.90
34829;DHT22;21042;47.620;12.188;2023-03-01T04:23:34;0.40;99.90
34829;DHT22;21042;47.620;12.188;2023-03-01T04:26:01;0.50;99.90
34829;DHT22;21042;47.620;12.188;2023-03-01T04:28:38;0.50;99.90
34829;DHT22;21042;47.620;12.188;2023-03-01T04:31:09;0.50;99.90
34829;DHT22;21042;47.620;12.188;2023-03-01T04:33:45;0.50;99.90
34829;DHT22;21042;47.620;12.188;2023-03-01T04:36:14;0.50;99.90
34829;DHT22;21042;47.620;12.188;2023-03-01T04:38:41;0.40;99.90
34829;DHT22;21042;47.620;12.188;2023-03-01T04:41:09;0.40;99.90
34829;DHT22;21042;47.620;12.188;2023-03-01T04:43:36;0.50;99.90
34829;DHT22;21042;47.620;12.188;2023-03-01T04:46:09;0.50;99.90
34829;DHT22;21042;47.620;12.188;2023-03-01T04:48:41;0.50;99.90
34829;DHT22;21042;47.620;12.188;2023-03-01T04:51:08;0.50;99.90
34829;DHT22;21042;47.620;12.188;2023-03-01T04:53:35;0.40;99.90
34829;DHT22;21042;47.620;12.188;2023-03-01T04:56:05;0.40;99.90
34829;DHT22;21042;47.620;12.188;2023-03-01T04:58:32;0.40;99.90
34829;DHT22;21042;47.620;12.188;2023-03-01T05:00:59;0.50;99.90
34829;DHT22;21042;47.620;12.188;2023-03-01T05:03:26;0.50;99.90
34829;DHT22;21042;47.620;12.188;2023-03-01T05:05:53;0.50;99.90
34829;DHT22;21042;47.620;12.188;2023-03-01T05:08:20;0.50;99.90
34829;DHT22;21042;47.620;12.188;2023-03-01T05:10:51;0.50;99.90
34829;DHT22;21042;47.620;12.188;2023-03-01T05:13:20;0.50;99.90
34829;DHT22;21042;47.620;12.188;2023-03-01T05:15:53;0.50;99.90
34829;DHT22;21042;47.620;12.188;2023-03-01T05:18:20;0.50;99.90
34829;DHT22;21042;47.620;12.188;2023-03-01T05:20:47;0.50;99.90
34829;DHT22;21042;47.620;12.188;2023-03-01T05:23:13;0.50;99.90
34829;DHT22;21042;47.620;12.188;2023-03-01T05:25:40;0.50;99.90
34829;DHT22;21042;47.620;12.188;2023-03-01T05:28:10;0.50;99.90
34829;DHT22;21042;47.620;12.188;2023-03-01T05:30:38;0.50;99.90
34829;DHT22;21042;47.620;12.188;2023-03-01T05:33:06;0.50;99.90
34829;DHT22;21042;47.620;12.188;2023-03-01T05:35:41;0.50;99.90
34829;DHT22;21042;47.620;12.188;2023-03-01T05:38:09;0.50;99.90
34829;DHT22;21042;47.620;12.188;2023-03-01T05:40:40;0.50;99.90
34829;DHT22;21042;47.620;12.188;2023-03-01T05:43:07;0.50;99.90
34829;DHT22;21042;47.620;12.188;2023-03-01T05:45:36;0.50;99.90
34829;DHT22;21042;47.620;12.188;2023-03-01T05:48:04;0.60;99.90
34829;DHT22;21042;47.620;12.188;2023-03-01T05:50:36;0.60;99.90
34829;DHT22;21042;47.620;12.188;2023-03-01T05:53:07;0.60;99.90
34829;DHT22;21042;47.620;12.188;2023-03-01T05:55:36;0.60;99.90
34829;DHT22;21042;47.620;12.188;2023-03-01T05:58:05;0.60;99.90
34829;DHT22;21042;47.620;12.188;2023-03-01T06:00:33;0.60;99.90
34829;DHT22;21042;47.620;12.188;2023-03-01T06:03:00;0.60;99.90
34829;DHT22;21042;47.620;12.188;2023-03-01T06:05:27;0.60;99.90
34829;DHT22;21042;47.620;12.188;2023-03-01T06:07:55;0.60;99.90
34829;DHT22;21042;47.620;12.188;2023-03-01T06:10:25;0.60;99.90
34829;DHT22;21042;47.620;12.188;2023-03-01T06:12:51;0.60;99.90
34829;DHT22;21042;47.620;12.188;2023-03-01T06:15:18;0.60;99.90
34829;DHT22;21042;47.620;12.188;2023-03-01T06:18:07;0.60;99.90
34829;DHT22;21042;47.620;12.188;2023-03-01T06:20:32;0.60;99.90
34829;DHT22;21042;47.620;12.188;2023-03-01T06:22:59;0.60;99.90
34829;DHT22;21042;47.620;12.188;2023-03-01T06:25:27;0.60;99.90
34829;DHT22;21042;47.620;12.188;2023-03-01T06:27:53;0.60;99.90
34829;DHT22;21042;47.620;12.188;2023-03-01T06:30:21;0.70;99.90
34829;DHT22;21042;47.620;12.188;2023-03-01T06:32:49;0.70;99.90
34829;DHT22;21042;47.620;12.188;2023-03-01T06:35:17;0.80;99.90
34829;DHT22;21042;47.620;12.188;2023-03-01T06:37:46;0.80;99.90
34829;DHT22;21042;47.620;12.188;2023-03-01T06:40:13;0.80;99.90
34829;DHT22;21042;47.620;12.188;2023-03-01T06:42:42;0.80;99.90
34829;DHT22;21042;47.620;12.188;2023-03-01T06:45:10;0.80;99.90
34829;DHT22;21042;47.620;12.188;2023-03-01T06:47:37;0.90;99.90
34829;DHT22;21042;47.620;12.188;2023-03-01T06:50:04;0.90;99.90
34829;DHT22;21042;47.620;12.188;2023-03-01T06:52:31;0.80;99.90
34829;DHT22;21042;47.620;12.188;2023-03-01T06:54:58;0.80;99.90
34829;DHT22;21042;47.620;12.188;2023-03-01T06:57:25;0.80;99.90
34829;DHT22;21042;47.620;12.188;2023-03-01T06:59:51;0.80;99.90
34829;DHT22;21042;47.620;12.188;2023-03-01T07:02:18;0.80;99.90
34829;DHT22;21042;47.620;12.188;2023-03-01T07:04:45;0.80;99.90
34829;DHT22;21042;47.620;12.188;2023-03-01T07:07:12;0.80;99.90
34829;DHT22;21042;47.620;12.188;2023-03-01T07:09:38;0.80;99.90
34829;DHT22;21042;47.620;12.188;2023-03-01T07:12:05;0.80;99.90
34829;DHT22;21042;47.620;12.188;2023-03-01T07:14:33;0.90;99.90
34829;DHT22;21042;47.620;12.188;2023-03-01T07:16:59;0.90;99.90
34829;DHT22;21042;47.620;12.188;2023-03-01T07:19:26;0.90;99.90
34829;DHT22;21042;47.620;12.188;2023-03-01T07:21:53;0.90;99.90
34829;DHT22;21042;47.620;12.188;2023-03-01T07:24:22;0.90;99.90
34829;DHT22;21042;47.620;12.188;2023-03-01T07:26:50;0.90;99.90
34829;DHT22;21042;47.620;12.188;2023-03-01T07:29:17;0.90;99.90
34829;DHT22;21042;47.620;12.188;2023-03-01T07:31:44;0.90;99.90
34829;DHT22;21042;47.620;12.188;2023-03-01T07:34:11;0.90;99.90
34829;DHT22;21042;47.620;12.188;2023-03-01T07:36:38;0.90;99.90
34829;DHT22;21042;47.620;12.188;2023-03-01T07:39:06;0.90;99.90
34829;DHT22;21042;47.620;12.188;2023-03-01T07:41:33;0.90;99.90
34829;DHT22;21042;47.620;12.188;2023-03-01T07:43:59;1.00;99.90
34829;DHT22;21042;47.620;12.188;2023-03-01T07:46:26;1.00;99.90
34829;DHT22;21042;47.620;12.188;2023-03-01T07:48:53;1.10;99.90
34829;DHT22;21042;47.620;12.188;2023-03-01T07:51:20;1.00;99.90
34829;DHT22;21042;47.620;12.188;2023-03-01T07:53:47;1.10;99.90
34829;DHT22;21042;47.620;12.188;2023-03-01T07:56:15;1.00;99.90
34829;DHT22;21042;47.620;12.188;2023-03-01T07:58:44;1.00;99.90
34829;DHT22;21042;47.620;12.188;2023-03-01T08:01:14;1.10;99.90
34829;DHT22;21042;47.620;12.188;2023-03-01T08:03:41;1.10;99.90
34829;DHT22;21042;47.620;12.188;2023-03-01T08:06:11;1.10;99.90
34829;DHT22;21042;47.620;12.188;2023-03-01T08:08:38;1.20;99.90
34829;DHT22;21042;47.620;12.188;2023-03-01T08:11:06;1.20;99.90
34829;DHT22;21042;47.620;12.188;2023-03-01T08:13:33;1.20;99.90
34829;DHT22;21042;47.620;12.188;2023-03-01T08:16:06;1.30;99.90
34829;DHT22;21042;47.620;12.188;2023-03-01T08:18:33;1.30;99.90
34829;DHT22;21042;47.620;12.188;2023-03-01T08:21:12;1.30;99.90
34829;DHT22;21042;47.620;12.188;2023-03-01T08:23:39;1.30;99.90
34829;DHT22;21042;47.620;12.188;2023-03-01T08:26:11;1.30;99.90
34829;DHT22;21042;47.620;12.188;2023-03-01T08:28:39;1.40;99.90
34829;DHT22;21042;47.620;12.188;2023-03-01T08:31:18;1.50;99.90
34829;DHT22;21042;47.620;12.188;2023-03-01T08:33:47;1.60;99.90
34829;DHT22;21042;47.620;12.188;2023-03-01T08:36:18;1.60;99.90
34829;DHT22;21042;47.620;12.188;2023-03-01T08:38:44;1.70;99.90
34829;DHT22;21042;47.620;12.188;2023-03-01T08:41:12;1.70;99.90
34829;DHT22;21042;47.620;12.188;2023-03-01T08:43:39;1.70;99.90
34829;DHT22;21042;47.620;12.188;2023-03-01T08:46:05;1.80;99.90
34829;DHT22;21042;47.620;12.188;2023-03-01T08:48:32;1.80;99.90
34829;DHT22;21042;47.620;12.188;2023-03-01T08:51:14;1.80;99.90
34829;DHT22;21042;47.620;12.188;2023-03-01T08:53:41;1.90;99.90
34829;DHT22;21042;47.620;12.188;2023-03-01T08:56:09;1.90;99.90
34829;DHT22;21042;47.620;12.188;2023-03-01T08:58:36;1.90;99.90
34829;DHT22;21042;47.620;12.188;2023-03-01T09:01:07;2.00;99.90
34829;DHT22;21042;47.620;12.188;2023-03-01T09:03:34;2.00;99.90
34829;DHT22;21042;47.620;12.188;2023-03-01T09:06:02;2.00;99.90
34829;DHT22;21042;47.620;12.188;2023-03-01T09:08:29;2.10;99.90
34829;DHT22;21042;47.620;12.188;2023-03-01T09:10:56;2.20;99.90
34829;DHT22;21042;47.620;12.188;2023-03-01T09:13:23;2.30;99.90
34829;DHT22;21042;47.620;12.188;2023-03-01T09:15:53;2.30;99.90
34829;DHT22;21042;47.620;12.188;2023-03-01T09:18:20;2.30;99.90
34829;DHT22;21042;47.620;12.188;2023-03-01T09:20:47;2.40;99.90
34829;DHT22;21042;47.620;12.188;2023-03-01T09:23:13;2.50;99.90
34829;DHT22;21042;47.620;12.188;2023-03-01T09:25:40;2.50;99.90
34829;DHT22;21042;47.620;12.188;2023-03-01T09:28:07;2.60;99.90
34829;DHT22;21042;47.620;12.188;2023-03-01T09:30:41;2.80;99.90
34829;DHT22;21042;47.620;12.188;2023-03-01T09:33:07;2.80;99.90
34829;DHT22;21042;47.620;12.188;2023-03-01T09:35:41;2.80;99.90
34829;DHT22;21042;47.620;12.188;2023-03-01T09:38:13;2.90;99.90
34829;DHT22;21042;47.620;12.188;2023-03-01T09:40:44;3.00;99.90
34829;DHT22;21042;47.620;12.188;2023-03-01T09:43:23;3.00;99.90
34829;DHT22;21042;47.620;12.188;2023-03-01T09:45:54;3.20;99.90
34829;DHT22;21042;47.620;12.188;2023-03-01T09:48:26;3.30;99.90
34829;DHT22;21042;47.620;12.188;2023-03-01T09:50:53;3.50;99.90
34829;DHT22;21042;47.620;12.188;2023-03-01T09:53:30;3.60;99.90
34829;DHT22;21042;47.620;12.188;2023-03-01T09:56:12;3.70;99.90
34829;DHT22;21042;47.620;12.188;2023-03-01T09:59:06;3.70;99.90
34829;DHT22;21042;47.620;12.188;2023-03-01T10:01:50;3.70;99.90
34829;DHT22;21042;47.620;12.188;2023-03-01T10:04:32;3.90;99.90
34829;DHT22;21042;47.620;12.188;2023-03-01T10:09:39;3.90;99.90
34829;DHT22;21042;47.620;12.188;2023-03-01T10:12:15;4.00;99.90
34829;DHT22;21042;47.620;12.188;2023-03-01T10:17:35;4.30;99.90
34829;DHT22;21042;47.620;12.188;2023-03-01T10:22:48;4.50;99.90
34829;DHT22;21042;47.620;12.188;2023-03-01T10:28:08;4.70;99.90
34829;DHT22;21042;47.620;12.188;2023-03-01T10:30:39;4.90;99.90
34829;DHT22;21042;47.620;12.188;2023-03-01T10:33:17;4.80;99.90
34829;DHT22;21042;47.620;12.188;2023-03-01T10:35:47;4.90;99.90
34829;DHT22;21042;47.620;12.188;2023-03-01T10:38:16;4.80;99.90
34829;DHT22;21042;47.620;12.188;2023-03-01T10:41:00;4.70;99.90
34829;DHT22;21042;47.620;12.188;2023-03-01T10:43:47;4.70;99.90
34829;DHT22;21042;47.620;12.188;2023-03-01T10:46:33;4.60;99.90
34829;DHT22;21042;47.620;12.188;2023-03-01T10:49:18;4.50;99.90
34829;DHT22;21042;47.620;12.188;2023-03-01T10:51:48;4.70;99.90
34829;DHT22;21042;47.620;12.188;2023-03-01T10:54:18;4.90;99.90
34829;DHT22;21042;47.620;12.188;2023-03-01T10:56:53;5.00;99.90
34829;DHT22;21042;47.620;12.188;2023-03-01T10:59:28;5.00;99.90
34829;DHT22;21042;47.620;12.188;2023-03-01T11:05:13;5.00;99.90
34829;DHT22;21042;47.620;12.188;2023-03-01T11:07:54;4.80;99.90
34829;DHT22;21042;47.620;12.188;2023-03-01T11:10:33;4.70;99.90
34829;DHT22;21042;47.620;12.188;2023-03-01T11:15:33;4.70;99.90
34829;DHT22;21042;47.620;12.188;2023-03-01T11:18:00;4.80;99.90
34829;DHT22;21042;47.620;12.188;2023-03-01T11:20:39;4.90;99.90
34829;DHT22;21042;47.620;12.188;2023-03-01T11:23:10;5.10;99.90
34829;DHT22;21042;47.620;12.188;2023-03-01T11:25:37;5.30;99.90
34829;DHT22;21042;47.620;12.188;2023-03-01T11:28:05;5.50;99.90
34829;DHT22;21042;47.620;12.188;2023-03-01T11:33:35;5.80;99.90
34829;DHT22;21042;47.620;12.188;2023-03-01T11:38:48;5.70;99.90
34829;DHT22;21042;47.620;12.188;2023-03-01T11:41:26;5.80;99.90
34829;DHT22;21042;47.620;12.188;2023-03-01T11:44:03;5.80;99.90
34829;DHT22;21042;47.620;12.188;2023-03-01T11:52:17;5.00;99.90
34829;DHT22;21042;47.620;12.188;2023-03-01T12:05:48;3.90;99.90
34829;DHT22;21042;47.620;12.188;2023-03-01T12:08:18;3.80;99.90
34829;DHT22;21042;47.620;12.188;2023-03-01T12:11:11;3.80;99.90
34829;DHT22;21042;47.620;12.188;2023-03-01T12:19:08;4.10;99.90
34829;DHT22;21042;47.620;12.188;2023-03-01T12:26:57;4.10;99.90
34829;DHT22;21042;47.620;12.188;2023-03-01T12:29:38;4.10;99.90
34829;DHT22;21042;47.620;12.188;2023-03-01T12:37:05;4.00;99.90
34829;DHT22;21042;47.620;12.188;2023-03-01T12:44:48;4.10;99.90
34829;DHT22;21042;47.620;12.188;2023-03-01T12:47:24;4.20;99.90
34829;DHT22;21042;47.620;12.188;2023-03-01T12:49:57;4.30;99.90
34829;DHT22;21042;47.620;12.188;2023-03-01T12:52:46;4.40;99.90
34829;DHT22;21042;47.620;12.188;2023-03-01T13:00:39;4.50;99.90
34829;DHT22;21042;47.620;12.188;2023-03-01T13:03:23;4.50;99.90
34829;DHT22;21042;47.620;12.188;2023-03-01T13:06:04;4.50;99.90
34829;DHT22;21042;47.620;12.188;2023-03-01T13:11:43;4.40;99.90
34829;DHT22;21042;47.620;12.188;2023-03-01T13:16:50;4.30;99.90
34829;DHT22;21042;47.620;12.188;2023-03-01T13:19:20;4.20;99.90
34829;DHT22;21042;47.620;12.188;2023-03-01T13:21:48;4.20;99.90
34829;DHT22;21042;47.620;12.188;2023-03-01T13:29:46;4.10;99.90
34829;DHT22;21042;47.620;12.188;2023-03-01T13:32:24;4.10;99.90
34829;DHT22;21042;47.620;12.188;2023-03-01T13:37:45;4.20;99.90
34829;DHT22;21042;47.620;12.188;2023-03-01T13:42:44;4.20;99.90
34829;DHT22;21042;47.620;12.188;2023-03-01T13:45:36;4.10;99.90
34829;DHT22;21042;47.620;12.188;2023-03-01T13:48:15;4.10;99.90
34829;DHT22;21042;47.620;12.188;2023-03-01T13:50:45;4.10;99.90
34829;DHT22;21042;47.620;12.188;2023-03-01T13:53:16;4.00;99.90
34829;DHT22;21042;47.620;12.188;2023-03-01T13:55:58;4.00;99.90
34829;DHT22;21042;47.620;12.188;2023-03-01T13:58:33;4.00;99.90
34829;DHT22;21042;47.620;12.188;2023-03-01T14:01:20;4.00;99.90
34829;DHT22;21042;47.620;12.188;2023-03-01T14:03:47;3.90;99.90
34829;DHT22;21042;47.620;12.188;2023-03-01T14:06:15;4.00;99.90
34829;DHT22;21042;47.620;12.188;2023-03-01T14:08:47;4.00;99.90
34829;DHT22;21042;47.620;12.188;2023-03-01T14:16:25;3.80;99.90
34829;DHT22;21042;47.620;12.188;2023-03-01T14:19:04;3.90;99.90
34829;DHT22;21042;47.620;12.188;2023-03-01T14:21:33;3.90;99.90
34829;DHT22;21042;47.620;12.188;2023-03-01T14:24:01;3.90;99.90
34829;DHT22;21042;47.620;12.188;2023-03-01T14:26:28;4.00;99.90
34829;DHT22;21042;47.620;12.188;2023-03-01T14:28:56;4.00;99.90
34829;DHT22;21042;47.620;12.188;2023-03-01T14:33:58;3.90;99.90
34829;DHT22;21042;47.620;12.188;2023-03-01T14:36:26;3.80;99.90
34829;DHT22;21042;47.620;12.188;2023-03-01T14:38:53;3.80;99.90
34829;DHT22;21042;47.620;12.188;2023-03-01T14:41:21;3.70;99.90
34829;DHT22;21042;47.620;12.188;2023-03-01T14:43:58;3.70;99.90
34829;DHT22;21042;47.620;12.188;2023-03-01T14:46:33;3.70;99.90
34829;DHT22;21042;47.620;12.188;2023-03-01T14:49:02;3.50;99.90
34829;DHT22;21042;47.620;12.188;2023-03-01T14:51:29;3.50;99.90
34829;DHT22;21042;47.620;12.188;2023-03-01T14:53:56;3.50;99.90
34829;DHT22;21042;47.620;12.188;2023-03-01T14:56:23;3.50;99.90
34829;DHT22;21042;47.620;12.188;2023-03-01T14:58:53;3.50;99.90
34829;DHT22;21042;47.620;12.188;2023-03-01T15:01:19;3.50;99.90
34829;DHT22;21042;47.620;12.188;2023-03-01T15:03:47;3.40;99.90
34829;DHT22;21042;47.620;12.188;2023-03-01T15:06:15;4.00;99.90
34829;DHT22;21042;47.620;12.188;2023-03-01T15:08:48;3.40;99.90
34829;DHT22;21042;47.620;12.188;2023-03-01T15:11:32;3.30;99.90
34829;DHT22;21042;47.620;12.188;2023-03-01T15:13:59;3.30;99.90
34829;DHT22;21042;47.620;12.188;2023-03-01T15:16:26;3.30;99.90
34829;DHT22;21042;47.620;12.188;2023-03-01T15:18:57;3.20;99.90
34829;DHT22;21042;47.620;12.188;2023-03-01T15:21:26;3.30;99.90
34829;DHT22;21042;47.620;12.188;2023-03-01T15:26:33;3.50;99.90
34829;DHT22;21042;47.620;12.188;2023-03-01T15:29:02;3.40;99.90
34829;DHT22;21042;47.620;12.188;2023-03-01T15:31:32;3.40;99.90
34829;DHT22;21042;47.620;12.188;2023-03-01T15:34:09;3.30;99.90
34829;DHT22;21042;47.620;12.188;2023-03-01T15:36:38;3.30;99.90
34829;DHT22;21042;47.620;12.188;2023-03-01T15:39:22;3.30;99.90
34829;DHT22;21042;47.620;12.188;2023-03-01T15:41:52;3.30;99.90
34829;DHT22;21042;47.620;12.188;2023-03-01T15:44:28;3.30;99.90
34829;DHT22;21042;47.620;12.188;2023-03-01T15:47:22;3.20;99.90
34829;DHT22;21042;47.620;12.188;2023-03-01T15:49:50;3.20;99.90
34829;DHT22;21042;47.620;12.188;2023-03-01T15:54:56;3.10;99.90
34829;DHT22;21042;47.620;12.188;2023-03-01T15:57:23;3.00;99.90
34829;DHT22;21042;47.620;12.188;2023-03-01T15:59:49;3.00;99.90
34829;DHT22;21042;47.620;12.188;2023-03-01T16:02:16;3.10;99.90
34829;DHT22;21042;47.620;12.188;2023-03-01T16:04:43;3.10;99.90
34829;DHT22;21042;47.620;12.188;2023-03-01T16:07:09;3.00;99.90
34829;DHT22;21042;47.620;12.188;2023-03-01T16:09:36;3.00;99.90
34829;DHT22;21042;47.620;12.188;2023-03-01T16:12:03;3.00;99.90
34829;DHT22;21042;47.620;12.188;2023-03-01T16:14:30;2.90;99.90
34829;DHT22;21042;47.620;12.188;2023-03-01T16:16:56;2.80;99.90
34829;DHT22;21042;47.620;12.188;2023-03-01T16:19:23;2.80;99.90
34829;DHT22;21042;47.620;12.188;2023-03-01T16:21:49;2.70;99.90
34829;DHT22;21042;47.620;12.188;2023-03-01T16:24:16;2.60;99.90
34829;DHT22;21042;47.620;12.188;2023-03-01T16:26:43;2.70;99.90
34829;DHT22;21042;47.620;12.188;2023-03-01T16:29:10;2.60;99.90
34829;DHT22;21042;47.620;12.188;2023-03-01T16:31:36;2.50;99.90
34829;DHT22;21042;47.620;12.188;2023-03-01T16:34:03;2.50;99.90
34829;DHT22;21042;47.620;12.188;2023-03-01T16:36:30;2.50;99.90
34829;DHT22;21042;47.620;12.188;2023-03-01T16:38:57;2.40;99.90
34829;DHT22;21042;47.620;12.188;2023-03-01T16:41:25;2.30;99.90
34829;DHT22;21042;47.620;12.188;2023-03-01T16:43:51;2.30;99.90
34829;DHT22;21042;47.620;12.188;2023-03-01T16:46:20;2.20;99.90
34829;DHT22;21042;47.620;12.188;2023-03-01T16:48:47;2.20;99.90
34829;DHT22;21042;47.620;12.188;2023-03-01T16:51:14;2.20;99.90
34829;DHT22;21042;47.620;12.188;2023-03-01T16:53:41;2.10;99.90
34829;DHT22;21042;47.620;12.188;2023-03-01T16:56:08;2.10;99.90
34829;DHT22;21042;47.620;12.188;2023-03-01T16:58:36;2.00;99.90
34829;DHT22;21042;47.620;12.188;2023-03-01T17:01:07;2.00;99.90
34829;DHT22;21042;47.620;12.188;2023-03-01T17:03:34;1.90;99.90
34829;DHT22;21042;47.620;12.188;2023-03-01T17:06:02;1.90;99.90
34829;DHT22;21042;47.620;12.188;2023-03-01T17:08:29;1.80;99.90
34829;DHT22;21042;47.620;12.188;2023-03-01T17:10:55;1.80;99.90
34829;DHT22;21042;47.620;12.188;2023-03-01T17:13:27;1.80;99.90
34829;DHT22;21042;47.620;12.188;2023-03-01T17:15:54;1.80;99.90
34829;DHT22;21042;47.620;12.188;2023-03-01T17:18:21;1.80;99.90
34829;DHT22;21042;47.620;12.188;2023-03-01T17:20:47;1.80;99.90
34829;DHT22;21042;47.620;12.188;2023-03-01T17:23:14;1.80;99.90
34829;DHT22;21042;47.620;12.188;2023-03-01T17:25:43;1.80;99.90
34829;DHT22;21042;47.620;12.188;2023-03-01T17:28:11;1.80;99.90
34829;DHT22;21042;47.620;12.188;2023-03-01T17:30:40;1.80;99.90
34829;DHT22;21042;47.620;12.188;2023-03-01T17:33:07;1.80;99.90